sensor_id;sensor_type;location;lat;lon;timestamp;temperature;humidity
57106;DHT22;62662;56.788;23.942;2022-10-12T00:01:32;6.50;99.90
57106;DHT22;62662;56.788;23.942;2022-10-12T00:03:59;6.40;99.90
57106;DHT22;62662;56.788;23.942;2022-10-12T00:06:26;6.30;99.90
57106;DHT22;62662;56.788;23.942;2022-10-12T00:08:53;6.40;99.90
57106;DHT22;62662;56.788;23.942;2022-10-12T00:11:26;6.40;99.90
57106;DHT22;62662;56.788;23.942;2022-10-12T00:13:54;6.30;99.90
57106;DHT22;62662;56.788;23.942;2022-10-12T00:16:23;6.30;99.90
57106;DHT22;62662;56.788;23.942;2022-10-12T00:18:52;6.40;99.90
57106;DHT22;62662;56.788;23.942;2022-10-12T00:21:20;6.30;99.90
57106;DHT22;62662;56.788;23.942;2022-10-12T00:23:48;6.30;99.90
57106;DHT22;62662;56.788;23.942;2022-10-12T00:26:19;6.30;99.90
57106;DHT22;62662;56.788;23.942;2022-10-12T00:28:47;6.20;99.90
57106;DHT22;62662;56.788;23.942;2022-10-12T00:31:19;6.10;99.90
57106;DHT22;62662;56.788;23.942;2022-10-12T00:33:47;6.10;99.90
57106;DHT22;62662;56.788;23.942;2022-10-12T00:36:22;6.20;99.90
57106;DHT22;62662;56.788;23.942;2022-10-12T00:38:52;6.30;99.90
57106;DHT22;62662;56.788;23.942;2022-10-12T00:41:22;6.40;99.90
57106;DHT22;62662;56.788;23.942;2022-10-12T00:43:50;6.30;99.90
57106;DHT22;62662;56.788;23.942;2022-10-12T00:46:31;6.30;99.90
57106;DHT22;62662;56.788;23.942;2022-10-12T00:51:31;6.30;99.90
57106;DHT22;62662;56.788;23.942;2022-10-12T00:54:02;6.30;99.90
57106;DHT22;62662;56.788;23.942;2022-10-12T00:56:33;6.20;99.90
57106;DHT22;62662;56.788;23.942;2022-10-12T00:59:05;6.20;99.90
57106;DHT22;62662;56.788;23.942;2022-10-12T01:01:36;6.20;99.90
57106;DHT22;62662;56.788;23.942;2022-10-12T01:04:05;6.20;99.90
57106;DHT22;62662;56.788;23.942;2022-10-12T01:06:33;6.20;99.90
57106;DHT22;62662;56.788;23.942;2022-10-12T01:09:02;6.20;99.90
57106;DHT22;62662;56.788;23.942;2022-10-12T01:11:29;6.10;99.90
57106;DHT22;62662;56.788;23.942;2022-10-12T01:13:57;6.10;99.90
57106;DHT22;62662;56.788;23.942;2022-10-12T01:19:09;6.00;99.90
57106;DHT22;62662;56.788;23.942;2022-10-12T01:21:43;6.00;99.90
57106;DHT22;62662;56.788;23.942;2022-10-12T01:27:23;6.00;99.90
57106;DHT22;62662;56.788;23.942;2022-10-12T01:43:00;6.00;99.90
57106;DHT22;62662;56.788;23.942;2022-10-12T01:45:27;6.10;99.90
57106;DHT22;62662;56.788;23.942;2022-10-12T01:47:54;6.20;99.90
57106;DHT22;62662;56.788;23.942;2022-10-12T01:50:24;6.30;99.90
57106;DHT22;62662;56.788;23.942;2022-10-12T02:01:21;6.60;99.90
57106;DHT22;62662;56.788;23.942;2022-10-12T02:06:57;6.60;99.90
57106;DHT22;62662;56.788;23.942;2022-10-12T02:09:31;6.50;99.90
57106;DHT22;62662;56.788;23.942;2022-10-12T02:12:03;6.60;99.90
57106;DHT22;62662;56.788;23.942;2022-10-12T02:14:37;6.60;99.90
57106;DHT22;62662;56.788;23.942;2022-10-12T02:17:08;6.60;99.90
57106;DHT22;62662;56.788;23.942;2022-10-12T02:19:40;6.70;99.90
57106;DHT22;62662;56.788;23.942;2022-10-12T02:22:10;6.60;99.90
57106;DHT22;62662;56.788;23.942;2022-10-12T02:24:40;6.50;99.90
57106;DHT22;62662;56.788;23.942;2022-10-12T02:27:08;6.40;99.90
57106;DHT22;62662;56.788;23.942;2022-10-12T02:29:38;6.40;99.90
57106;DHT22;62662;56.788;23.942;2022-10-12T02:37:59;6.30;99.90
57106;DHT22;62662;56.788;23.942;2022-10-12T02:40:51;6.20;99.90
57106;DHT22;62662;56.788;23.942;2022-10-12T02:45:58;6.20;99.90
57106;DHT22;62662;56.788;23.942;2022-10-12T02:48:28;6.20;99.90
57106;DHT22;62662;56.788;23.942;2022-10-12T02:50:56;6.20;99.90
57106;DHT22;62662;56.788;23.942;2022-10-12T02:53:25;6.00;99.90
57106;DHT22;62662;56.788;23.942;2022-10-12T02:55:59;6.00;99.90
57106;DHT22;62662;56.788;23.942;2022-10-12T02:58:27;5.90;99.90
57106;DHT22;62662;56.788;23.942;2022-10-12T03:00:54;5.90;99.90
57106;DHT22;62662;56.788;23.942;2022-10-12T03:03:21;5.80;99.90
57106;DHT22;62662;56.788;23.942;2022-10-12T03:05:48;5.80;99.90
57106;DHT22;62662;56.788;23.942;2022-10-12T03:08:15;5.80;99.90
57106;DHT22;62662;56.788;23.942;2022-10-12T03:10:42;5.90;99.90
57106;DHT22;62662;56.788;23.942;2022-10-12T03:13:09;6.00;99.90
57106;DHT22;62662;56.788;23.942;2022-10-12T03:15:36;6.10;99.90
57106;DHT22;62662;56.788;23.942;2022-10-12T03:18:03;6.10;99.90
57106;DHT22;62662;56.788;23.942;2022-10-12T03:20:30;6.00;99.90
57106;DHT22;62662;56.788;23.942;2022-10-12T03:22:57;6.00;99.90
57106;DHT22;62662;56.788;23.942;2022-10-12T03:25:24;6.00;99.90
57106;DHT22;62662;56.788;23.942;2022-10-12T03:27:51;6.00;99.90
57106;DHT22;62662;56.788;23.942;2022-10-12T03:30:17;6.10;99.90
57106;DHT22;62662;56.788;23.942;2022-10-12T03:32:44;6.20;99.90
57106;DHT22;62662;56.788;23.942;2022-10-12T03:35:11;6.20;99.90
57106;DHT22;62662;56.788;23.942;2022-10-12T03:37:38;6.30;99.90
57106;DHT22;62662;56.788;23.942;2022-10-12T03:40:07;6.20;99.90
57106;DHT22;62662;56.788;23.942;2022-10-12T03:42:34;6.30;99.90
57106;DHT22;62662;56.788;23.942;2022-10-12T03:45:01;6.30;99.90
57106;DHT22;62662;56.788;23.942;2022-10-12T03:47:28;6.30;99.90
57106;DHT22;62662;56.788;23.942;2022-10-12T03:49:55;6.40;99.90
57106;DHT22;62662;56.788;23.942;2022-10-12T03:52:22;6.50;99.90
57106;DHT22;62662;56.788;23.942;2022-10-12T03:54:49;6.60;99.90
57106;DHT22;62662;56.788;23.942;2022-10-12T03:57:15;6.70;99.90
57106;DHT22;62662;56.788;23.942;2022-10-12T03:59:42;6.80;99.90
57106;DHT22;62662;56.788;23.942;2022-10-12T04:02:09;6.90;99.90
57106;DHT22;62662;56.788;23.942;2022-10-12T04:04:42;6.90;99.90
57106;DHT22;62662;56.788;23.942;2022-10-12T04:07:09;6.90;99.90
57106;DHT22;62662;56.788;23.942;2022-10-12T04:09:42;6.90;99.90
57106;DHT22;62662;56.788;23.942;2022-10-12T04:12:08;6.90;99.90
57106;DHT22;62662;56.788;23.942;2022-10-12T04:14:36;6.80;99.90
57106;DHT22;62662;56.788;23.942;2022-10-12T04:17:03;6.80;99.90
57106;DHT22;62662;56.788;23.942;2022-10-12T04:19:32;6.60;99.90
57106;DHT22;62662;56.788;23.942;2022-10-12T04:22:00;6.60;99.90
57106;DHT22;62662;56.788;23.942;2022-10-12T04:24:27;6.50;99.90
57106;DHT22;62662;56.788;23.942;2022-10-12T04:26:54;6.50;99.90
57106;DHT22;62662;56.788;23.942;2022-10-12T04:29:21;6.60;99.90
57106;DHT22;62662;56.788;23.942;2022-10-12T04:31:48;6.60;99.90
57106;DHT22;62662;56.788;23.942;2022-10-12T04:34:18;6.70;99.90
57106;DHT22;62662;56.788;23.942;2022-10-12T04:36:49;6.70;99.90
57106;DHT22;62662;56.788;23.942;2022-10-12T04:39:28;6.70;99.90
57106;DHT22;62662;56.788;23.942;2022-10-12T04:41:59;6.70;99.90
57106;DHT22;62662;56.788;23.942;2022-10-12T04:45:16;6.70;99.90
57106;DHT22;62662;56.788;23.942;2022-10-12T04:47:51;6.60;99.90
57106;DHT22;62662;56.788;23.942;2022-10-12T05:21:15;6.70;99.90
57106;DHT22;62662;56.788;23.942;2022-10-12T05:50:18;7.20;99.90
57106;DHT22;62662;56.788;23.942;2022-10-12T05:53:49;7.30;99.90
57106;DHT22;62662;56.788;23.942;2022-10-12T05:56:33;7.50;99.90
57106;DHT22;62662;56.788;23.942;2022-10-12T05:59:04;7.70;99.90
57106;DHT22;62662;56.788;23.942;2022-10-12T06:02:15;7.70;99.90
57106;DHT22;62662;56.788;23.942;2022-10-12T06:04:54;7.80;99.90
57106;DHT22;62662;56.788;23.942;2022-10-12T06:07:51;7.80;99.90
57106;DHT22;62662;56.788;23.942;2022-10-12T06:10:49;7.90;99.90
57106;DHT22;62662;56.788;23.942;2022-10-12T06:13:51;7.80;99.90
57106;DHT22;62662;56.788;23.942;2022-10-12T06:16:26;7.90;99.90
57106;DHT22;62662;56.788;23.942;2022-10-12T06:18:56;8.00;99.90
57106;DHT22;62662;56.788;23.942;2022-10-12T06:21:36;8.20;99.90
57106;DHT22;62662;56.788;23.942;2022-10-12T06:25:07;8.10;99.90
57106;DHT22;62662;56.788;23.942;2022-10-12T06:40:06;8.20;99.90
57106;DHT22;62662;56.788;23.942;2022-10-12T06:42:48;8.50;99.90
57106;DHT22;62662;56.788;23.942;2022-10-12T06:45:49;8.50;99.90
57106;DHT22;62662;56.788;23.942;2022-10-12T06:48:27;8.60;99.90
57106;DHT22;62662;56.788;23.942;2022-10-12T06:51:04;8.70;99.90
57106;DHT22;62662;56.788;23.942;2022-10-12T06:53:33;8.90;99.90
57106;DHT22;62662;56.788;23.942;2022-10-12T06:56:10;9.00;99.90
57106;DHT22;62662;56.788;23.942;2022-10-12T06:58:51;9.00;99.90
57106;DHT22;62662;56.788;23.942;2022-10-12T07:01:36;9.10;99.90
57106;DHT22;62662;56.788;23.942;2022-10-12T07:04:04;9.20;99.90
57106;DHT22;62662;56.788;23.942;2022-10-12T07:07:00;10.10;99.90
57106;DHT22;62662;56.788;23.942;2022-10-12T07:09:47;11.50;99.90
57106;DHT22;62662;56.788;23.942;2022-10-12T07:12:27;11.90;99.90
57106;DHT22;62662;56.788;23.942;2022-10-12T07:14:57;12.40;99.90
57106;DHT22;62662;56.788;23.942;2022-10-12T07:17:26;12.20;99.90
57106;DHT22;62662;56.788;23.942;2022-10-12T07:19:58;11.60;99.90
57106;DHT22;62662;56.788;23.942;2022-10-12T07:22:35;11.30;99.90
57106;DHT22;62662;56.788;23.942;2022-10-12T07:25:07;11.20;99.90
57106;DHT22;62662;56.788;23.942;2022-10-12T07:27:49;11.00;99.90
57106;DHT22;62662;56.788;23.942;2022-10-12T07:30:24;10.90;99.90
57106;DHT22;62662;56.788;23.942;2022-10-12T07:32:53;11.10;99.90
57106;DHT22;62662;56.788;23.942;2022-10-12T07:35:21;11.50;99.90
57106;DHT22;62662;56.788;23.942;2022-10-12T07:41:58;12.50;99.90
57106;DHT22;62662;56.788;23.942;2022-10-12T08:00:53;19.90;98.80
57106;DHT22;62662;56.788;23.942;2022-10-12T08:30:33;23.60;86.40
57106;DHT22;62662;56.788;23.942;2022-10-12T08:33:27;24.00;86.00
57106;DHT22;62662;56.788;23.942;2022-10-12T08:36:28;24.20;82.60
57106;DHT22;62662;56.788;23.942;2022-10-12T08:38:55;24.00;84.00
57106;DHT22;62662;56.788;23.942;2022-10-12T08:47:31;24.80;79.40
57106;DHT22;62662;56.788;23.942;2022-10-12T08:50:31;24.40;77.90
57106;DHT22;62662;56.788;23.942;2022-10-12T09:00:38;25.90;73.00
57106;DHT22;62662;56.788;23.942;2022-10-12T09:03:52;25.80;70.10
57106;DHT22;62662;56.788;23.942;2022-10-12T09:19:36;26.30;67.10
57106;DHT22;62662;56.788;23.942;2022-10-12T09:22:17;25.70;67.60
57106;DHT22;62662;56.788;23.942;2022-10-12T09:24:49;26.30;66.80
57106;DHT22;62662;56.788;23.942;2022-10-12T09:27:19;27.10;65.70
57106;DHT22;62662;56.788;23.942;2022-10-12T09:29:56;27.60;63.10
57106;DHT22;62662;56.788;23.942;2022-10-12T09:35:35;26.10;63.00
57106;DHT22;62662;56.788;23.942;2022-10-12T09:38:25;25.90;64.30
57106;DHT22;62662;56.788;23.942;2022-10-12T09:40:55;26.90;63.40
57106;DHT22;62662;56.788;23.942;2022-10-12T09:43:58;27.20;61.10
57106;DHT22;62662;56.788;23.942;2022-10-12T09:47:06;27.40;61.80
57106;DHT22;62662;56.788;23.942;2022-10-12T09:50:49;27.80;60.30
57106;DHT22;62662;56.788;23.942;2022-10-12T09:53:24;27.70;60.90
57106;DHT22;62662;56.788;23.942;2022-10-12T09:58:42;27.40;58.20
57106;DHT22;62662;56.788;23.942;2022-10-12T10:01:23;26.80;57.20
57106;DHT22;62662;56.788;23.942;2022-10-12T10:04:14;25.60;57.20
57106;DHT22;62662;56.788;23.942;2022-10-12T10:06:44;23.50;59.80
57106;DHT22;62662;56.788;23.942;2022-10-12T10:09:31;20.80;64.60
57106;DHT22;62662;56.788;23.942;2022-10-12T10:12:26;18.50;70.10
57106;DHT22;62662;56.788;23.942;2022-10-12T10:14:55;16.70;75.10
57106;DHT22;62662;56.788;23.942;2022-10-12T10:17:32;15.70;78.90
57106;DHT22;62662;56.788;23.942;2022-10-12T10:20:02;15.20;81.70
57106;DHT22;62662;56.788;23.942;2022-10-12T10:22:31;17.10;78.40
57106;DHT22;62662;56.788;23.942;2022-10-12T10:24:59;20.00;72.00
57106;DHT22;62662;56.788;23.942;2022-10-12T10:27:34;21.50;67.80
57106;DHT22;62662;56.788;23.942;2022-10-12T10:33:36;24.30;62.00
57106;DHT22;62662;56.788;23.942;2022-10-12T10:39:02;24.70;59.30
57106;DHT22;62662;56.788;23.942;2022-10-12T10:41:54;24.50;58.20
57106;DHT22;62662;56.788;23.942;2022-10-12T10:44:38;23.70;59.30
57106;DHT22;62662;56.788;23.942;2022-10-12T10:47:17;23.90;59.20
57106;DHT22;62662;56.788;23.942;2022-10-12T10:50:04;24.90;58.20
57106;DHT22;62662;56.788;23.942;2022-10-12T10:52:58;25.40;56.00
57106;DHT22;62662;56.788;23.942;2022-10-12T10:55:41;25.30;55.70
57106;DHT22;62662;56.788;23.942;2022-10-12T10:58:34;22.80;55.00
57106;DHT22;62662;56.788;23.942;2022-10-12T11:04:22;17.00;64.50
57106;DHT22;62662;56.788;23.942;2022-10-12T11:07:00;16.10;68.50
57106;DHT22;62662;56.788;23.942;2022-10-12T11:09:45;15.50;69.70
57106;DHT22;62662;56.788;23.942;2022-10-12T11:12:35;15.10;70.20
57106;DHT22;62662;56.788;23.942;2022-10-12T11:15:15;14.70;73.30
57106;DHT22;62662;56.788;23.942;2022-10-12T11:18:00;14.60;73.90
57106;DHT22;62662;56.788;23.942;2022-10-12T11:20:46;14.50;74.60
57106;DHT22;62662;56.788;23.942;2022-10-12T11:23:23;14.50;76.10
57106;DHT22;62662;56.788;23.942;2022-10-12T11:28:46;17.10;70.60
57106;DHT22;62662;56.788;23.942;2022-10-12T11:31:23;17.20;70.80
57106;DHT22;62662;56.788;23.942;2022-10-12T11:34:07;16.70;72.50
57106;DHT22;62662;56.788;23.942;2022-10-12T11:36:44;16.20;74.30
57106;DHT22;62662;56.788;23.942;2022-10-12T11:39:56;15.80;76.00
57106;DHT22;62662;56.788;23.942;2022-10-12T11:42:31;15.60;75.60
57106;DHT22;62662;56.788;23.942;2022-10-12T11:45:02;15.50;76.70
57106;DHT22;62662;56.788;23.942;2022-10-12T11:47:39;15.20;77.00
57106;DHT22;62662;56.788;23.942;2022-10-12T11:50:43;14.80;77.40
57106;DHT22;62662;56.788;23.942;2022-10-12T11:56:36;18.00;73.10
57106;DHT22;62662;56.788;23.942;2022-10-12T11:59:16;20.50;64.00
57106;DHT22;62662;56.788;23.942;2022-10-12T12:02:18;22.00;62.70
57106;DHT22;62662;56.788;23.942;2022-10-12T12:04:51;24.30;56.90
57106;DHT22;62662;56.788;23.942;2022-10-12T12:07:39;25.00;54.90
57106;DHT22;62662;56.788;23.942;2022-10-12T12:19:08;21.30;61.80
57106;DHT22;62662;56.788;23.942;2022-10-12T12:24:39;21.40;61.50
57106;DHT22;62662;56.788;23.942;2022-10-12T12:27:40;22.20;60.60
57106;DHT22;62662;56.788;23.942;2022-10-12T12:30:29;22.80;57.80
57106;DHT22;62662;56.788;23.942;2022-10-12T12:33:05;24.30;56.00
57106;DHT22;62662;56.788;23.942;2022-10-12T12:35:59;23.50;53.90
57106;DHT22;62662;56.788;23.942;2022-10-12T12:38:34;21.60;56.50
57106;DHT22;62662;56.788;23.942;2022-10-12T12:41:06;21.20;57.30
57106;DHT22;62662;56.788;23.942;2022-10-12T12:43:37;21.00;59.80
57106;DHT22;62662;56.788;23.942;2022-10-12T12:46:10;21.30;58.80
57106;DHT22;62662;56.788;23.942;2022-10-12T12:53:51;22.20;58.70
57106;DHT22;62662;56.788;23.942;2022-10-12T13:04:37;21.70;58.70
57106;DHT22;62662;56.788;23.942;2022-10-12T13:16:18;17.30;70.40
57106;DHT22;62662;56.788;23.942;2022-10-12T13:19:12;16.80;70.30
57106;DHT22;62662;56.788;23.942;2022-10-12T13:21:47;16.50;70.90
57106;DHT22;62662;56.788;23.942;2022-10-12T13:26:55;15.90;70.90
57106;DHT22;62662;56.788;23.942;2022-10-12T13:29:42;15.40;71.70
57106;DHT22;62662;56.788;23.942;2022-10-12T13:33:19;15.30;73.40
57106;DHT22;62662;56.788;23.942;2022-10-12T13:38:24;15.00;72.90
57106;DHT22;62662;56.788;23.942;2022-10-12T13:40:57;15.20;73.00
57106;DHT22;62662;56.788;23.942;2022-10-12T13:43:33;15.40;73.30
57106;DHT22;62662;56.788;23.942;2022-10-12T13:46:02;15.40;73.60
57106;DHT22;62662;56.788;23.942;2022-10-12T13:48:30;15.40;74.30
57106;DHT22;62662;56.788;23.942;2022-10-12T13:51:22;15.40;75.00
57106;DHT22;62662;56.788;23.942;2022-10-12T13:53:50;15.30;75.40
57106;DHT22;62662;56.788;23.942;2022-10-12T13:56:19;15.20;74.50
57106;DHT22;62662;56.788;23.942;2022-10-12T13:58:50;15.00;75.40
57106;DHT22;62662;56.788;23.942;2022-10-12T14:01:19;15.00;74.80
57106;DHT22;62662;56.788;23.942;2022-10-12T14:03:46;15.10;74.40
57106;DHT22;62662;56.788;23.942;2022-10-12T14:06:40;15.10;76.80
57106;DHT22;62662;56.788;23.942;2022-10-12T14:09:11;15.10;77.70
57106;DHT22;62662;56.788;23.942;2022-10-12T14:11:41;14.90;79.10
57106;DHT22;62662;56.788;23.942;2022-10-12T14:17:18;14.90;80.70
57106;DHT22;62662;56.788;23.942;2022-10-12T14:19:51;14.80;80.00
57106;DHT22;62662;56.788;23.942;2022-10-12T14:25:10;14.50;79.60
57106;DHT22;62662;56.788;23.942;2022-10-12T14:27:40;14.40;80.40
57106;DHT22;62662;56.788;23.942;2022-10-12T14:30:16;14.20;81.80
57106;DHT22;62662;56.788;23.942;2022-10-12T14:32:43;14.10;82.90
57106;DHT22;62662;56.788;23.942;2022-10-12T14:37:40;13.80;84.60
57106;DHT22;62662;56.788;23.942;2022-10-12T14:40:30;13.70;84.80
57106;DHT22;62662;56.788;23.942;2022-10-12T14:43:03;13.70;85.60
57106;DHT22;62662;56.788;23.942;2022-10-12T14:45:31;13.60;86.40
57106;DHT22;62662;56.788;23.942;2022-10-12T14:48:00;13.50;87.20
57106;DHT22;62662;56.788;23.942;2022-10-12T14:50:29;13.40;86.80
57106;DHT22;62662;56.788;23.942;2022-10-12T14:53:03;13.30;87.00
57106;DHT22;62662;56.788;23.942;2022-10-12T14:55:32;13.20;87.90
57106;DHT22;62662;56.788;23.942;2022-10-12T14:58:00;13.20;88.30
57106;DHT22;62662;56.788;23.942;2022-10-12T15:00:31;13.30;87.90
57106;DHT22;62662;56.788;23.942;2022-10-12T15:02:59;13.20;88.60
57106;DHT22;62662;56.788;23.942;2022-10-12T15:05:28;13.20;89.00
57106;DHT22;62662;56.788;23.942;2022-10-12T15:07:58;13.10;89.80
57106;DHT22;62662;56.788;23.942;2022-10-12T15:10:27;13.00;90.20
57106;DHT22;62662;56.788;23.942;2022-10-12T15:12:54;13.00;90.70
57106;DHT22;62662;56.788;23.942;2022-10-12T15:15:43;13.00;90.80
57106;DHT22;62662;56.788;23.942;2022-10-12T15:18:10;13.00;90.80
57106;DHT22;62662;56.788;23.942;2022-10-12T15:20:38;12.90;90.90
57106;DHT22;62662;56.788;23.942;2022-10-12T15:23:14;12.70;90.90
57106;DHT22;62662;56.788;23.942;2022-10-12T15:25:53;12.60;91.00
57106;DHT22;62662;56.788;23.942;2022-10-12T15:28:21;12.40;91.90
57106;DHT22;62662;56.788;23.942;2022-10-12T15:30:49;12.30;92.10
57106;DHT22;62662;56.788;23.942;2022-10-12T15:33:36;12.10;92.10
57106;DHT22;62662;56.788;23.942;2022-10-12T15:36:03;12.60;92.80
57106;DHT22;62662;56.788;23.942;2022-10-12T15:38:30;11.80;92.90
57106;DHT22;62662;56.788;23.942;2022-10-12T15:40:58;11.60;93.50
57106;DHT22;62662;56.788;23.942;2022-10-12T15:43:25;11.50;93.90
57106;DHT22;62662;56.788;23.942;2022-10-12T15:45:52;11.60;94.60
57106;DHT22;62662;56.788;23.942;2022-10-12T15:48:19;10.90;95.20
57106;DHT22;62662;56.788;23.942;2022-10-12T15:50:47;10.70;96.20
57106;DHT22;62662;56.788;23.942;2022-10-12T15:53:24;10.40;97.00
57106;DHT22;62662;56.788;23.942;2022-10-12T15:55:53;10.20;98.90
57106;DHT22;62662;56.788;23.942;2022-10-12T15:58:21;10.00;99.90
57106;DHT22;62662;56.788;23.942;2022-10-12T16:00:48;9.80;99.90
57106;DHT22;62662;56.788;23.942;2022-10-12T16:03:17;9.60;99.90
57106;DHT22;62662;56.788;23.942;2022-10-12T16:05:51;9.40;99.90
57106;DHT22;62662;56.788;23.942;2022-10-12T16:08:22;9.20;99.90
57106;DHT22;62662;56.788;23.942;2022-10-12T16:10:51;9.10;99.90
57106;DHT22;62662;56.788;23.942;2022-10-12T16:13:18;8.90;99.90
57106;DHT22;62662;56.788;23.942;2022-10-12T16:15:46;8.80;99.90
57106;DHT22;62662;56.788;23.942;2022-10-12T16:18:19;8.70;99.90
57106;DHT22;62662;56.788;23.942;2022-10-12T16:20:49;8.50;99.90
57106;DHT22;62662;56.788;23.942;2022-10-12T16:23:25;8.40;99.90
57106;DHT22;62662;56.788;23.942;2022-10-12T16:25:52;8.30;99.90
57106;DHT22;62662;56.788;23.942;2022-10-12T16:28:21;8.30;99.90
57106;DHT22;62662;56.788;23.942;2022-10-12T16:30:50;8.20;99.90
57106;DHT22;62662;56.788;23.942;2022-10-12T16:33:18;8.10;99.90
57106;DHT22;62662;56.788;23.942;2022-10-12T16:35:45;8.00;99.90
57106;DHT22;62662;56.788;23.942;2022-10-12T16:38:12;7.90;99.90
57106;DHT22;62662;56.788;23.942;2022-10-12T16:40:41;7.90;99.90
57106;DHT22;62662;56.788;23.942;2022-10-12T16:43:09;7.80;99.90
57106;DHT22;62662;56.788;23.942;2022-10-12T16:45:36;7.70;99.90
57106;DHT22;62662;56.788;23.942;2022-10-12T16:48:03;7.70;99.90
57106;DHT22;62662;56.788;23.942;2022-10-12T16:50:30;7.90;99.90
57106;DHT22;62662;56.788;23.942;2022-10-12T16:52:58;8.00;99.90
57106;DHT22;62662;56.788;23.942;2022-10-12T16:55:25;8.00;99.90
57106;DHT22;62662;56.788;23.942;2022-10-12T16:57:52;7.90;99.90
57106;DHT22;62662;56.788;23.942;2022-10-12T17:00:19;7.80;99.90
57106;DHT22;62662;56.788;23.942;2022-10-12T17:02:46;7.80;99.90
57106;DHT22;62662;56.788;23.942;2022-10-12T17:05:14;7.80;99.90
57106;DHT22;62662;56.788;23.942;2022-10-12T17:07:41;7.70;99.90
57106;DHT22;62662;56.788;23.942;2022-10-12T17:10:09;7.60;99.90
57106;DHT22;62662;56.788;23.942;2022-10-12T17:12:36;7.50;99.90
57106;DHT22;62662;56.788;23.942;2022-10-12T17:15:04;7.40;99.90
57106;DHT22;62662;56.788;23.942;2022-10-12T17:17:31;7.30;99.90
57106;DHT22;62662;56.788;23.942;2022-10-12T17:19:58;7.20;99.90
57106;DHT22;62662;56.788;23.942;2022-10-12T17:22:30;7.00;99.90
57106;DHT22;62662;56.788;23.942;2022-10-12T17:24:58;6.90;99.90
57106;DHT22;62662;56.788;23.942;2022-10-12T17:27:25;6.80;99.90
57106;DHT22;62662;56.788;23.942;2022-10-12T17:29:57;6.80;99.90
57106;DHT22;62662;56.788;23.942;2022-10-12T17:32:25;6.60;99.90
57106;DHT22;62662;56.788;23.942;2022-10-12T17:34:52;6.60;99.90
57106;DHT22;62662;56.788;23.942;2022-10-12T17:37:19;6.50;99.90
57106;DHT22;62662;56.788;23.942;2022-10-12T17:39:47;6.50;99.90
57106;DHT22;62662;56.788;23.942;2022-10-12T17:42:16;6.50;99.90
57106;DHT22;62662;56.788;23.942;2022-10-12T17:44:45;6.60;99.90
57106;DHT22;62662;56.788;23.942;2022-10-12T17:47:12;6.80;99.90
57106;DHT22;62662;56.788;23.942;2022-10-12T17:49:39;6.90;99.90
57106;DHT22;62662;56.788;23.942;2022-10-12T17:52:06;6.90;99.90
57106;DHT22;62662;56.788;23.942;2022-10-12T17:54:33;6.80;99.90
57106;DHT22;62662;56.788;23.942;2022-10-12T17:57:00;6.80;99.90
57106;DHT22;62662;56.788;23.942;2022-10-12T17:59:27;6.70;99.90
57106;DHT22;62662;56.788;23.942;2022-10-12T18:01:54;6.60;99.90
57106;DHT22;62662;56.788;23.942;2022-10-12T18:04:21;6.50;99.90
57106;DHT22;62662;56.788;23.942;2022-10-12T18:06:48;6.40;99.90
57106;DHT22;62662;56.788;23.942;2022-10-12T18:09:15;6.40;99.90
57106;DHT22;62662;56.788;23.942;2022-10-12T18:11:43;6.40;99.90
57106;DHT22;62662;56.788;23.942;2022-10-12T18:14:11;6.40;99.90
57106;DHT22;62662;56.788;23.942;2022-10-12T18:16:39;6.50;99.90
57106;DHT22;62662;56.788;23.942;2022-10-12T18:19:08;6.70;99.90
57106;DHT22;62662;56.788;23.942;2022-10-12T18:21:37;6.70;99.90
57106;DHT22;62662;56.788;23.942;2022-10-12T18:24:07;6.70;99.90
57106;DHT22;62662;56.788;23.942;2022-10-12T18:26:46;6.60;99.90
57106;DHT22;62662;56.788;23.942;2022-10-12T18:29:13;6.60;99.90
57106;DHT22;62662;56.788;23.942;2022-10-12T18:31:40;6.60;99.90
57106;DHT22;62662;56.788;23.942;2022-10-12T18:34:07;6.80;99.90
57106;DHT22;62662;56.788;23.942;2022-10-12T18:36:35;6.90;99.90
57106;DHT22;62662;56.788;23.942;2022-10-12T18:39:03;6.80;99.90
57106;DHT22;62662;56.788;23.942;2022-10-12T18:41:30;6.60;99.90
57106;DHT22;62662;56.788;23.942;2022-10-12T18:43:59;6.50;99.90
57106;DHT22;62662;56.788;23.942;2022-10-12T18:46:28;6.40;99.90
57106;DHT22;62662;56.788;23.942;2022-10-12T18:48:56;6.30;99.90
57106;DHT22;62662;56.788;23.942;2022-10-12T18:51:29;6.30;99.90
57106;DHT22;62662;56.788;23.942;2022-10-12T18:53:57;6.30;99.90
57106;DHT22;62662;56.788;23.942;2022-10-12T18:56:25;6.20;99.90
57106;DHT22;62662;56.788;23.942;2022-10-12T18:58:53;6.10;99.90
57106;DHT22;62662;56.788;23.942;2022-10-12T19:01:21;5.90;99.90
57106;DHT22;62662;56.788;23.942;2022-10-12T19:03:51;5.70;99.90
57106;DHT22;62662;56.788;23.942;2022-10-12T19:06:21;5.50;99.90
57106;DHT22;62662;56.788;23.942;2022-10-12T19:08:49;5.40;99.90
57106;DHT22;62662;56.788;23.942;2022-10-12T19:11:18;5.20;99.90
57106;DHT22;62662;56.788;23.942;2022-10-12T19:13:54;5.20;99.90
57106;DHT22;62662;56.788;23.942;2022-10-12T19:16:23;5.00;99.90
57106;DHT22;62662;56.788;23.942;2022-10-12T19:19:00;4.90;99.90
57106;DHT22;62662;56.788;23.942;2022-10-12T19:21:28;4.90;99.90
57106;DHT22;62662;56.788;23.942;2022-10-12T19:23:56;4.90;99.90
57106;DHT22;62662;56.788;23.942;2022-10-12T19:26:25;4.90;99.90
57106;DHT22;62662;56.788;23.942;2022-10-12T19:28:54;4.80;99.90
57106;DHT22;62662;56.788;23.942;2022-10-12T19:31:24;4.70;99.90
57106;DHT22;62662;56.788;23.942;2022-10-12T19:34:03;4.70;99.90
57106;DHT22;62662;56.788;23.942;2022-10-12T19:36:31;4.50;99.90
57106;DHT22;62662;56.788;23.942;2022-10-12T19:39:00;4.50;99.90
57106;DHT22;62662;56.788;23.942;2022-10-12T19:41:28;4.40;99.90
57106;DHT22;62662;56.788;23.942;2022-10-12T19:43:57;4.30;99.90
57106;DHT22;62662;56.788;23.942;2022-10-12T19:46:25;4.20;99.90
57106;DHT22;62662;56.788;23.942;2022-10-12T19:48:53;4.30;99.90
57106;DHT22;62662;56.788;23.942;2022-10-12T19:51:24;4.30;99.90
57106;DHT22;62662;56.788;23.942;2022-10-12T19:53:59;4.30;99.90
57106;DHT22;62662;56.788;23.942;2022-10-12T19:56:27;4.20;99.90
57106;DHT22;62662;56.788;23.942;2022-10-12T19:58:55;4.10;99.90
57106;DHT22;62662;56.788;23.942;2022-10-12T20:01:26;4.10;99.90
57106;DHT22;62662;56.788;23.942;2022-10-12T20:03:53;4.10;99.90
57106;DHT22;62662;56.788;23.942;2022-10-12T20:06:23;4.00;99.90
57106;DHT22;62662;56.788;23.942;2022-10-12T20:08:52;4.00;99.90
57106;DHT22;62662;56.788;23.942;2022-10-12T20:11:19;3.90;99.90
57106;DHT22;62662;56.788;23.942;2022-10-12T20:13:50;3.90;99.90
57106;DHT22;62662;56.788;23.942;2022-10-12T20:16:18;3.90;99.90
57106;DHT22;62662;56.788;23.942;2022-10-12T20:18:46;3.90;99.90
57106;DHT22;62662;56.788;23.942;2022-10-12T20:21:16;4.00;99.90